createdAt,value
2017-03-29T00:00:04.574Z,74297
2017-03-29T00:00:14.661Z,74297
2017-03-29T00:00:24.470Z,74299
2017-03-29T00:00:34.557Z,74297
2017-03-29T00:00:44.361Z,74297
2017-03-29T00:00:54.456Z,74294
2017-03-29T00:01:04.258Z,74298
2017-03-29T00:01:14.355Z,74298
2017-03-29T00:01:24.443Z,74294
2017-03-29T00:01:34.534Z,74294
2017-03-29T00:01:44.626Z,74297
2017-03-29T00:01:54.718Z,74299
2017-03-29T00:02:04.810Z,74298
2017-03-29T00:02:14.622Z,74298
2017-03-29T00:02:24.709Z,74298
2017-03-29T00:02:34.793Z,74295
2017-03-29T00:02:44.883Z,74297
2017-03-29T00:02:54.990Z,74300
2017-03-29T00:03:05.107Z,74302
2017-03-29T00:03:15.197Z,74297
2017-03-29T00:03:25.002Z,74299
2017-03-29T00:03:35.089Z,74301
2017-03-29T00:03:45.177Z,74299
2017-03-29T00:03:55.267Z,74301
2017-03-29T00:04:05.071Z,74297
2017-03-29T00:04:15.158Z,74299
2017-03-29T00:04:24.959Z,74300
2017-03-29T00:04:35.047Z,74298
2017-03-29T00:04:45.131Z,74297
2017-03-29T00:04:55.219Z,74299
2017-03-29T00:05:05.323Z,74296
2017-03-29T00:05:15.411Z,74298
2017-03-29T00:05:25.498Z,74298
2017-03-29T00:05:35.584Z,74300
2017-03-29T00:05:45.679Z,74297
2017-03-29T00:05:55.766Z,74299
2017-03-29T00:06:05.579Z,74297
2017-03-29T00:06:15.671Z,74301
2017-03-29T00:06:25.505Z,74296
2017-03-29T00:06:35.591Z,74297
2017-03-29T00:06:45.683Z,74297
2017-03-29T00:06:55.768Z,74297
2017-03-29T00:07:05.575Z,74294
2017-03-29T00:07:15.661Z,74296
2017-03-29T00:07:25.749Z,74292
2017-03-29T00:07:35.834Z,74292
2017-03-29T00:07:45.923Z,74296
2017-03-29T00:07:56.019Z,74294
2017-03-29T00:08:05.822Z,74293
2017-03-29T00:08:15.909Z,74290
2017-03-29T00:08:25.993Z,74289
2017-03-29T00:08:36.080Z,74291
2017-03-29T00:08:46.169Z,74291
2017-03-29T00:08:56.255Z,74290
2017-03-29T00:09:06.344Z,74292
2017-03-29T00:09:16.441Z,74292
2017-03-29T00:09:26.527Z,74292
2017-03-29T00:09:36.335Z,74297
2017-03-29T00:09:45.854Z,74296
2017-03-29T00:09:55.952Z,74292
2017-03-29T00:10:06.072Z,74293
2017-03-29T00:10:15.879Z,74293
2017-03-29T00:10:25.968Z,74298
2017-03-29T00:10:36.059Z,74293
2017-03-29T00:10:45.861Z,74296
2017-03-29T00:10:55.952Z,74295
2017-03-29T00:11:06.048Z,74294
2017-03-29T00:11:16.145Z,74295
2017-03-29T00:11:26.240Z,74296
2017-03-29T00:11:36.333Z,74296
2017-03-29T00:11:46.420Z,74298
2017-03-29T00:11:56.511Z,74299
2017-03-29T00:12:06.597Z,74299
2017-03-29T00:12:16.399Z,74299
2017-03-29T00:12:26.205Z,74298
2017-03-29T00:12:36.004Z,74297
2017-03-29T00:12:46.093Z,74297
2017-03-29T00:12:56.183Z,74299
2017-03-29T00:13:06.269Z,74297
2017-03-29T00:13:16.362Z,74299
2017-03-29T00:13:26.455Z,74294
2017-03-29T00:13:36.264Z,74300
2017-03-29T00:13:46.350Z,74300
2017-03-29T00:13:56.438Z,74300
2017-03-29T00:14:06.532Z,74297
2017-03-29T00:14:16.616Z,74299
2017-03-29T00:14:26.701Z,74299
2017-03-29T00:14:36.789Z,74296
2017-03-29T00:14:46.596Z,74297
2017-03-29T00:14:56.691Z,74295
2017-03-29T00:15:06.496Z,74298
2017-03-29T00:15:16.588Z,74297
2017-03-29T00:15:26.400Z,74296
2017-03-29T00:15:36.489Z,74294
2017-03-29T00:15:46.581Z,74297
2017-03-29T00:15:56.099Z,74296
2017-03-29T00:16:06.189Z,74298
2017-03-29T00:16:16.283Z,74293
2017-03-29T00:16:26.401Z,74294
2017-03-29T00:16:36.527Z,74292
2017-03-29T00:16:46.332Z,74296
2017-03-29T00:16:56.145Z,74299
2017-03-29T00:17:06.237Z,74296
2017-03-29T00:17:16.326Z,74299
2017-03-29T00:17:26.416Z,74295
2017-03-29T00:17:36.509Z,74297
2017-03-29T00:17:46.317Z,74294
2017-03-29T00:17:56.405Z,74299
2017-03-29T00:18:06.490Z,74295
2017-03-29T00:18:16.293Z,74295
2017-03-29T00:18:26.383Z,74294
2017-03-29T00:18:36.473Z,74297
2017-03-29T00:18:46.277Z,74295
2017-03-29T00:18:56.366Z,74295
2017-03-29T00:19:06.455Z,74296
2017-03-29T00:19:16.546Z,74294
2017-03-29T00:19:26.643Z,74300
2017-03-29T00:19:36.442Z,74298
2017-03-29T00:19:46.536Z,74297
2017-03-29T00:19:56.631Z,74293
2017-03-29T00:20:06.751Z,74295
2017-03-29T00:20:16.555Z,74298
2017-03-29T00:20:26.354Z,74293
2017-03-29T00:20:36.441Z,74298
2017-03-29T00:20:46.535Z,74294
2017-03-29T00:20:56.628Z,74298
2017-03-29T00:21:06.722Z,74297
2017-03-29T00:21:16.846Z,74297
2017-03-29T00:21:26.941Z,74299
2017-03-29T00:21:37.028Z,74295
2017-03-29T00:21:47.122Z,74296
2017-03-29T00:21:56.928Z,74298
2017-03-29T00:22:06.732Z,74296
2017-03-29T00:22:16.246Z,74299
2017-03-29T00:22:26.345Z,74299
2017-03-29T00:22:36.148Z,74298
2017-03-29T00:22:46.243Z,74301
2017-03-29T00:22:56.364Z,74299
2017-03-29T00:23:06.479Z,74301
2017-03-29T00:23:16.573Z,74300
2017-03-29T00:23:26.660Z,74302
2017-03-29T00:23:36.747Z,74303
2017-03-29T00:23:46.841Z,74301
2017-03-29T00:23:56.933Z,74302
2017-03-29T00:24:06.736Z,74303
2017-03-29T00:24:16.543Z,74301
2017-03-29T00:24:26.349Z,74305
2017-03-29T00:24:36.441Z,74300
2017-03-29T00:24:46.528Z,74297
2017-03-29T00:24:56.615Z,74303
2017-03-29T00:25:06.420Z,74301
2017-03-29T00:25:16.512Z,74300
2017-03-29T00:25:26.597Z,74303
2017-03-29T00:25:36.409Z,74303
2017-03-29T00:25:46.502Z,74301
2017-03-29T00:25:56.313Z,74301
2017-03-29T00:26:06.405Z,74302
2017-03-29T00:26:16.494Z,74302
2017-03-29T00:26:26.590Z,74304
2017-03-29T00:26:36.706Z,74303
2017-03-29T00:26:46.792Z,74303
2017-03-29T00:26:56.595Z,74304
2017-03-29T00:27:06.727Z,74302
2017-03-29T00:27:16.819Z,74304
2017-03-29T00:27:26.907Z,74304
2017-03-29T00:27:36.997Z,74302
2017-03-29T00:27:46.797Z,74305
2017-03-29T00:27:56.312Z,74300
2017-03-29T00:28:06.406Z,74303
2017-03-29T00:28:16.493Z,74303
2017-03-29T00:28:26.580Z,74304
2017-03-29T00:28:36.102Z,74303
2017-03-29T00:28:45.899Z,74303
2017-03-29T00:28:55.988Z,74304
2017-03-29T00:29:06.076Z,74303
2017-03-29T00:29:16.167Z,74303
2017-03-29T00:29:26.262Z,74302
2017-03-29T00:29:36.066Z,74303
2017-03-29T00:29:46.160Z,74302
2017-03-29T00:29:56.256Z,74303
2017-03-29T00:30:06.350Z,74302
2017-03-29T00:30:16.444Z,74302
2017-03-29T00:30:26.246Z,74301
2017-03-29T00:30:36.342Z,74302
2017-03-29T00:30:46.430Z,74304
2017-03-29T00:30:56.233Z,74302
2017-03-29T00:31:06.323Z,74302
2017-03-29T00:31:16.131Z,74302
2017-03-29T00:31:26.215Z,74300
2017-03-29T00:31:36.303Z,74299
2017-03-29T00:31:46.106Z,74300
2017-03-29T00:31:56.193Z,74299
2017-03-29T00:32:05.998Z,74300
2017-03-29T00:32:15.803Z,74298
2017-03-29T00:32:25.613Z,74299
2017-03-29T00:32:35.412Z,74300
2017-03-29T00:32:45.499Z,74300
2017-03-29T00:32:55.584Z,74298
2017-03-29T00:33:05.389Z,74300
2017-03-29T00:33:15.474Z,74301
2017-03-29T00:33:25.588Z,74303
2017-03-29T00:33:35.676Z,74298
2017-03-29T00:33:45.479Z,74301
2017-03-29T00:33:55.566Z,74301
2017-03-29T00:34:05.652Z,74301
2017-03-29T00:34:15.466Z,74300
2017-03-29T00:34:25.275Z,74297
2017-03-29T00:34:35.365Z,74301
2017-03-29T00:34:45.451Z,74301
2017-03-29T00:34:55.550Z,74300
2017-03-29T00:35:05.638Z,74299
2017-03-29T00:35:15.727Z,74298
2017-03-29T00:35:25.818Z,74298
2017-03-29T00:35:35.915Z,74298
2017-03-29T00:35:46.002Z,74293
2017-03-29T00:35:56.096Z,74295
2017-03-29T00:36:05.607Z,74294
2017-03-29T00:36:15.699Z,74295
2017-03-29T00:36:25.791Z,74294
2017-03-29T00:36:35.891Z,74293
2017-03-29T00:36:45.979Z,74294
2017-03-29T00:36:56.077Z,74296
2017-03-29T00:37:06.176Z,74296
2017-03-29T00:37:16.272Z,74298
2017-03-29T00:37:26.363Z,74295
2017-03-29T00:37:35.597Z,74297
2017-03-29T00:37:45.686Z,74300
2017-03-29T00:37:55.772Z,74297
2017-03-29T00:38:05.859Z,74296
2017-03-29T00:38:15.667Z,74298
2017-03-29T00:38:25.752Z,74298
2017-03-29T00:38:35.838Z,74299
2017-03-29T00:38:45.926Z,74297
2017-03-29T00:38:56.024Z,74295
2017-03-29T00:39:06.110Z,74297
2017-03-29T00:39:16.194Z,74297
2017-03-29T00:39:25.993Z,74295
2017-03-29T00:39:35.509Z,74293
2017-03-29T00:39:45.598Z,74296
2017-03-29T00:39:55.690Z,74297
2017-03-29T00:40:05.498Z,74296
2017-03-29T00:40:15.300Z,74297
2017-03-29T00:40:25.100Z,74298
2017-03-29T00:40:35.189Z,74296
2017-03-29T00:40:45.281Z,74300
2017-03-29T00:40:55.374Z,74297
2017-03-29T00:41:05.460Z,74297
2017-03-29T00:41:15.552Z,74297
2017-03-29T00:41:25.353Z,74297
2017-03-29T00:41:35.159Z,74294
2017-03-29T00:41:45.247Z,74294
2017-03-29T00:41:55.340Z,74294
2017-03-29T00:42:05.141Z,74294
2017-03-29T00:42:14.948Z,74294
2017-03-29T00:42:24.464Z,74294
2017-03-29T00:42:34.551Z,74293
2017-03-29T00:42:44.644Z,74289
2017-03-29T00:42:54.737Z,74294
2017-03-29T00:43:04.830Z,74293
2017-03-29T00:43:14.916Z,74290
2017-03-29T00:43:24.723Z,74294
2017-03-29T00:43:34.812Z,74291
2017-03-29T00:43:44.907Z,74285
2017-03-29T00:43:54.994Z,74293
2017-03-29T00:44:05.090Z,74291
2017-03-29T00:44:15.174Z,74292
2017-03-29T00:44:25.263Z,74290
2017-03-29T00:44:35.067Z,74291
2017-03-29T00:44:44.871Z,74292
2017-03-29T00:44:55.000Z,74289
2017-03-29T00:45:05.090Z,74292
2017-03-29T00:45:15.178Z,74290
2017-03-29T00:45:25.270Z,74289
2017-03-29T00:45:35.071Z,74287
2017-03-29T00:45:45.165Z,74288
2017-03-29T00:45:55.285Z,74288
2017-03-29T00:46:05.374Z,74289
2017-03-29T00:46:15.173Z,74291
2017-03-29T00:46:25.270Z,74290
2017-03-29T00:46:35.359Z,74292
2017-03-29T00:46:45.448Z,74295
2017-03-29T00:46:55.537Z,74296
2017-03-29T00:47:05.636Z,74298
2017-03-29T00:47:15.731Z,74295
2017-03-29T00:47:25.820Z,74292
2017-03-29T00:47:35.940Z,74296
2017-03-29T00:47:46.044Z,74296
2017-03-29T00:47:56.133Z,74301
2017-03-29T00:48:06.218Z,74296
2017-03-29T00:48:16.307Z,74298
2017-03-29T00:48:26.112Z,74299
2017-03-29T00:48:36.202Z,74302
2017-03-29T00:48:46.290Z,74299
2017-03-29T00:48:56.382Z,74299
2017-03-29T00:49:06.469Z,74300
2017-03-29T00:49:16.558Z,74301
2017-03-29T00:49:26.649Z,74299
2017-03-29T00:49:36.747Z,74303
2017-03-29T00:49:46.843Z,74303
2017-03-29T00:49:56.932Z,74302
2017-03-29T00:50:06.440Z,74299
2017-03-29T00:50:16.253Z,74300
2017-03-29T00:50:26.055Z,74300
2017-03-29T00:50:36.148Z,74294
2017-03-29T00:50:46.247Z,74299
2017-03-29T00:50:56.369Z,74295
2017-03-29T00:51:06.463Z,74296
2017-03-29T00:51:16.563Z,74297
2017-03-29T00:51:26.366Z,74294
2017-03-29T00:51:36.458Z,74294
2017-03-29T00:51:46.552Z,74297
2017-03-29T00:51:56.641Z,74299
2017-03-29T00:52:06.731Z,74298
2017-03-29T00:52:16.820Z,74302
2017-03-29T00:52:26.912Z,74299
2017-03-29T00:52:37.003Z,74293
2017-03-29T00:52:46.806Z,74299
2017-03-29T00:52:56.898Z,74296
2017-03-29T00:53:06.986Z,74296
2017-03-29T00:53:17.076Z,74298
2017-03-29T00:53:26.881Z,74297
2017-03-29T00:53:36.973Z,74295
2017-03-29T00:53:47.064Z,74296
2017-03-29T00:53:57.158Z,74296
2017-03-29T00:54:07.246Z,74295
2017-03-29T00:54:17.344Z,74295
2017-03-29T00:54:27.141Z,74296
2017-03-29T00:54:37.237Z,74296
2017-03-29T00:54:47.332Z,74295
2017-03-29T00:54:57.420Z,74296
2017-03-29T00:55:07.514Z,74296
2017-03-29T00:55:17.604Z,74294
2017-03-29T00:55:27.692Z,74294
2017-03-29T00:55:37.779Z,74298
2017-03-29T00:55:47.873Z,74300
2017-03-29T00:55:57.680Z,74299
2017-03-29T00:56:07.770Z,74299
2017-03-29T00:56:17.864Z,74298
2017-03-29T00:56:27.662Z,74296
2017-03-29T00:56:37.459Z,74295
2017-03-29T00:56:47.550Z,74296
2017-03-29T00:56:57.638Z,74293
2017-03-29T00:57:07.726Z,74293
2017-03-29T00:57:17.814Z,74293
2017-03-29T00:57:27.611Z,74293
2017-03-29T00:57:37.709Z,74292
2017-03-29T00:57:47.515Z,74294
2017-03-29T00:57:57.602Z,74289
2017-03-29T00:58:07.689Z,74296
2017-03-29T00:58:17.489Z,74297
2017-03-29T00:58:27.581Z,74295
2017-03-29T00:58:37.380Z,74298
2017-03-29T00:58:47.479Z,74296
2017-03-29T00:58:57.566Z,74294
2017-03-29T00:59:07.660Z,74297
2017-03-29T00:59:17.750Z,74293
2017-03-29T00:59:27.850Z,74294
2017-03-29T00:59:37.938Z,74294
2017-03-29T00:59:48.030Z,74298
2017-03-29T00:59:57.834Z,74297
2017-03-29T01:00:07.921Z,74300
2017-03-29T01:00:18.017Z,74300
2017-03-29T01:00:27.821Z,74298
2017-03-29T01:00:37.621Z,74299
2017-03-29T01:00:47.714Z,74298
2017-03-29T01:00:57.802Z,74296
2017-03-29T01:01:07.609Z,74298
2017-03-29T01:01:17.701Z,74297
2017-03-29T01:01:27.793Z,74294
2017-03-29T01:01:37.883Z,74296
2017-03-29T01:01:47.981Z,74293
2017-03-29T01:01:58.069Z,74297
2017-03-29T01:02:07.874Z,74296
2017-03-29T01:02:17.675Z,74294
2017-03-29T01:02:27.768Z,74294
2017-03-29T01:02:37.855Z,74292
2017-03-29T01:02:47.976Z,74296
2017-03-29T01:02:58.068Z,74294
2017-03-29T01:03:08.164Z,74291
2017-03-29T01:03:18.262Z,74296
2017-03-29T01:03:28.350Z,74298
2017-03-29T01:03:38.153Z,74296
2017-03-29T01:03:48.243Z,74297
2017-03-29T01:03:58.050Z,74295
2017-03-29T01:04:08.148Z,74298
2017-03-29T01:04:18.234Z,74295
2017-03-29T01:04:28.324Z,74294
2017-03-29T01:04:37.843Z,74292
2017-03-29T01:04:47.649Z,74295
2017-03-29T01:04:57.740Z,74296
2017-03-29T01:05:07.837Z,74297
2017-03-29T01:05:17.931Z,74292
2017-03-29T01:05:28.017Z,74297
2017-03-29T01:05:38.109Z,74295
2017-03-29T01:05:48.208Z,74293
2017-03-29T01:05:58.013Z,74295
2017-03-29T01:06:08.103Z,74293
2017-03-29T01:06:18.218Z,74293
2017-03-29T01:06:28.020Z,74294
2017-03-29T01:06:38.121Z,74297
2017-03-29T01:06:48.210Z,74295
2017-03-29T01:06:58.300Z,74292
2017-03-29T01:07:08.389Z,74294
2017-03-29T01:07:18.478Z,74294
2017-03-29T01:07:28.576Z,74293
2017-03-29T01:07:38.378Z,74295
2017-03-29T01:07:48.465Z,74300
2017-03-29T01:07:58.552Z,74296
2017-03-29T01:08:08.642Z,74296
2017-03-29T01:08:18.727Z,74290
2017-03-29T01:08:28.815Z,74293
2017-03-29T01:08:38.910Z,74294
2017-03-29T01:08:48.994Z,74297
2017-03-29T01:08:59.086Z,74295
2017-03-29T01:09:09.176Z,74294
2017-03-29T01:09:18.976Z,74297
2017-03-29T01:09:29.067Z,74296
2017-03-29T01:09:39.155Z,74295
2017-03-29T01:09:49.243Z,74302
2017-03-29T01:09:59.331Z,74299
2017-03-29T01:10:09.133Z,74300
2017-03-29T01:10:19.221Z,74302
2017-03-29T01:10:29.317Z,74300
2017-03-29T01:10:39.409Z,74300
2017-03-29T01:10:49.209Z,74298
2017-03-29T01:10:59.302Z,74298
2017-03-29T01:11:09.386Z,74300
2017-03-29T01:11:19.476Z,74299
2017-03-29T01:11:29.275Z,74300
2017-03-29T01:11:39.364Z,74299
2017-03-29T01:11:49.457Z,74301
2017-03-29T01:11:59.547Z,74301
2017-03-29T01:12:09.636Z,74297
2017-03-29T01:12:19.153Z,74300
2017-03-29T01:12:29.247Z,74300
2017-03-29T01:12:39.336Z,74296
2017-03-29T01:12:49.424Z,74300
2017-03-29T01:12:59.517Z,74298
2017-03-29T01:13:09.605Z,74296
2017-03-29T01:13:19.689Z,74296
2017-03-29T01:13:29.776Z,74298
2017-03-29T01:13:39.861Z,74297
2017-03-29T01:13:49.951Z,74294
2017-03-29T01:14:00.041Z,74294
2017-03-29T01:14:10.138Z,74294
2017-03-29T01:14:20.230Z,74295
2017-03-29T01:14:30.324Z,74296
2017-03-29T01:14:40.132Z,74299
2017-03-29T01:14:49.937Z,74294
2017-03-29T01:15:00.028Z,74298
2017-03-29T01:15:10.131Z,74296
2017-03-29T01:15:19.930Z,74295
2017-03-29T01:15:30.016Z,74299
2017-03-29T01:15:39.534Z,74295
2017-03-29T01:15:49.338Z,74299
2017-03-29T01:15:59.140Z,74294
2017-03-29T01:16:09.229Z,74293
2017-03-29T01:16:19.322Z,74294
2017-03-29T01:16:29.409Z,74294
2017-03-29T01:16:39.500Z,74292
2017-03-29T01:16:49.307Z,74292
2017-03-29T01:16:59.400Z,74293
2017-03-29T01:17:09.205Z,74286
2017-03-29T01:17:19.317Z,74286
2017-03-29T01:17:29.403Z,74290
2017-03-29T01:17:39.209Z,74291
2017-03-29T01:17:49.300Z,74288
2017-03-29T01:17:58.818Z,74288
2017-03-29T01:18:08.910Z,74290
2017-03-29T01:18:18.715Z,74291
2017-03-29T01:18:28.832Z,74293
2017-03-29T01:18:38.914Z,74292
2017-03-29T01:18:48.717Z,74295
2017-03-29T01:18:58.802Z,74295
2017-03-29T01:19:08.889Z,74290
2017-03-29T01:19:18.979Z,74295
2017-03-29T01:19:28.787Z,74296
2017-03-29T01:19:38.880Z,74297
2017-03-29T01:19:48.970Z,74291
2017-03-29T01:19:59.061Z,74291
2017-03-29T01:20:09.150Z,74296
2017-03-29T01:20:19.241Z,74291
2017-03-29T01:20:29.329Z,74291
2017-03-29T01:20:39.130Z,74294
2017-03-29T01:20:49.218Z,74294
2017-03-29T01:20:59.310Z,74293
2017-03-29T01:21:09.111Z,74289
2017-03-29T01:21:19.241Z,74289
2017-03-29T01:21:29.337Z,74292
2017-03-29T01:21:39.171Z,74288
2017-03-29T01:21:49.263Z,74289
2017-03-29T01:21:59.364Z,74291
2017-03-29T01:22:09.451Z,74293
2017-03-29T01:22:19.538Z,74292
2017-03-29T01:22:29.346Z,74291
2017-03-29T01:22:39.149Z,74294
2017-03-29T01:22:48.948Z,74294
2017-03-29T01:22:59.035Z,74294
2017-03-29T01:23:09.127Z,74292
2017-03-29T01:23:19.215Z,74295
2017-03-29T01:23:29.301Z,74295
2017-03-29T01:23:39.104Z,74297
2017-03-29T01:23:49.199Z,74294
2017-03-29T01:23:59.291Z,74297
2017-03-29T01:24:09.095Z,74299
2017-03-29T01:24:19.185Z,74298
2017-03-29T01:24:29.275Z,74297
2017-03-29T01:24:39.368Z,74296
2017-03-29T01:24:49.456Z,74298
2017-03-29T01:24:59.544Z,74295
2017-03-29T01:25:09.632Z,74296
2017-03-29T01:25:19.725Z,74295
2017-03-29T01:25:29.817Z,74299
2017-03-29T01:25:39.905Z,74296
2017-03-29T01:25:50.003Z,74295
2017-03-29T01:26:00.091Z,74294
2017-03-29T01:26:09.926Z,74295
2017-03-29T01:26:19.727Z,74293
2017-03-29T01:26:29.827Z,74288
2017-03-29T01:26:39.919Z,74290
2017-03-29T01:26:49.715Z,74290
2017-03-29T01:26:59.514Z,74286
2017-03-29T01:27:09.602Z,74285
2017-03-29T01:27:19.697Z,74287
2017-03-29T01:27:29.512Z,74289
2017-03-29T01:27:39.600Z,74284
2017-03-29T01:27:49.403Z,74290
2017-03-29T01:27:59.505Z,74289
2017-03-29T01:28:09.595Z,74291
2017-03-29T01:28:19.401Z,74289
2017-03-29T01:28:29.493Z,74288
2017-03-29T01:28:39.583Z,74294
2017-03-29T01:28:49.671Z,74288
2017-03-29T01:28:59.762Z,74290
2017-03-29T01:29:09.855Z,74288
2017-03-29T01:29:19.661Z,74289
2017-03-29T01:29:29.467Z,74288
2017-03-29T01:29:39.562Z,74291
2017-03-29T01:29:49.362Z,74288
2017-03-29T01:29:59.451Z,74286
2017-03-29T01:30:09.261Z,74290
2017-03-29T01:30:19.352Z,74292
2017-03-29T01:30:29.447Z,74291
2017-03-29T01:30:38.964Z,74290
2017-03-29T01:30:49.051Z,74292
2017-03-29T01:30:59.137Z,74294
2017-03-29T01:31:09.222Z,74291
2017-03-29T01:31:19.312Z,74293
2017-03-29T01:31:29.119Z,74289
2017-03-29T01:31:38.922Z,74288
2017-03-29T01:31:48.722Z,74290
2017-03-29T01:31:58.811Z,74287
2017-03-29T01:32:08.920Z,74288
2017-03-29T01:32:18.733Z,74283
2017-03-29T01:32:28.818Z,74287
2017-03-29T01:32:38.906Z,74286
2017-03-29T01:32:48.997Z,74286
2017-03-29T01:32:59.086Z,74285
2017-03-29T01:33:09.173Z,74287
2017-03-29T01:33:19.257Z,74285
2017-03-29T01:33:29.347Z,74283
2017-03-29T01:33:39.433Z,74284
2017-03-29T01:33:49.268Z,74281
2017-03-29T01:33:59.362Z,74283
2017-03-29T01:34:09.190Z,74284
2017-03-29T01:34:18.987Z,74283
2017-03-29T01:34:28.796Z,74283
2017-03-29T01:34:38.596Z,74284
2017-03-29T01:34:48.687Z,74282
2017-03-29T01:34:58.779Z,74281
2017-03-29T01:35:08.584Z,74283
2017-03-29T01:35:18.709Z,74283
2017-03-29T01:35:28.797Z,74279
2017-03-29T01:35:38.599Z,74282
2017-03-29T01:35:48.689Z,74283
2017-03-29T01:35:58.207Z,74283
2017-03-29T01:36:08.300Z,74282
2017-03-29T01:36:18.102Z,74285
2017-03-29T01:36:27.908Z,74284
2017-03-29T01:36:37.742Z,74284
2017-03-29T01:36:47.842Z,74281
2017-03-29T01:36:57.936Z,74281
2017-03-29T01:37:08.022Z,74279
2017-03-29T01:37:18.110Z,74279
2017-03-29T01:37:27.911Z,74276
2017-03-29T01:37:37.425Z,74278
2017-03-29T01:37:47.513Z,74278
2017-03-29T01:37:57.631Z,74279
2017-03-29T01:38:07.719Z,74279
2017-03-29T01:38:17.816Z,74283
2017-03-29T01:38:27.936Z,74283
2017-03-29T01:38:38.029Z,74281
2017-03-29T01:38:47.830Z,74278
2017-03-29T01:38:57.925Z,74282
2017-03-29T01:39:08.009Z,74284
2017-03-29T01:39:18.103Z,74281
2017-03-29T01:39:28.193Z,74280
2017-03-29T01:39:38.283Z,74284
2017-03-29T01:39:47.510Z,74283
2017-03-29T01:39:57.600Z,74284
2017-03-29T01:40:07.403Z,74286
2017-03-29T01:40:17.494Z,74284
2017-03-29T01:40:27.291Z,74283
2017-03-29T01:40:37.385Z,74282
2017-03-29T01:40:47.474Z,74283
2017-03-29T01:40:57.563Z,74284
2017-03-29T01:41:07.652Z,74280
2017-03-29T01:41:17.737Z,74282
2017-03-29T01:41:27.538Z,74282
2017-03-29T01:41:37.633Z,74282
2017-03-29T01:41:47.724Z,74287
2017-03-29T01:41:57.815Z,74282
2017-03-29T01:42:07.905Z,74281
2017-03-29T01:42:17.998Z,74285
2017-03-29T01:42:28.086Z,74286
2017-03-29T01:42:38.170Z,74286
2017-03-29T01:42:48.288Z,74286
2017-03-29T01:42:58.382Z,74284
2017-03-29T01:43:08.477Z,74283
2017-03-29T01:43:18.569Z,74287
2017-03-29T01:43:28.658Z,74285
2017-03-29T01:43:38.746Z,74282
2017-03-29T01:43:48.835Z,74282
2017-03-29T01:43:58.925Z,74282
2017-03-29T01:44:08.725Z,74280
2017-03-29T01:44:18.237Z,74278
2017-03-29T01:44:28.328Z,74279
2017-03-29T01:44:38.415Z,74281
2017-03-29T01:44:48.510Z,74282
2017-03-29T01:44:58.315Z,74283
2017-03-29T01:45:08.406Z,74281
2017-03-29T01:45:18.496Z,74281
2017-03-29T01:45:28.588Z,74281
2017-03-29T01:45:38.681Z,74283
2017-03-29T01:45:48.765Z,74284
2017-03-29T01:45:58.856Z,74286
2017-03-29T01:46:08.955Z,74287
2017-03-29T01:46:18.756Z,74286
2017-03-29T01:46:28.840Z,74284
2017-03-29T01:46:38.651Z,74284
2017-03-29T01:46:48.747Z,74280
2017-03-29T01:46:58.839Z,74281
2017-03-29T01:47:08.924Z,74283
2017-03-29T01:47:19.016Z,74282
2017-03-29T01:47:29.104Z,74287
2017-03-29T01:47:39.195Z,74286
2017-03-29T01:47:49.288Z,74283
2017-03-29T01:47:59.381Z,74281
2017-03-29T01:48:09.491Z,74286
2017-03-29T01:48:19.580Z,74279
2017-03-29T01:48:29.390Z,74282
2017-03-29T01:48:39.189Z,74281
2017-03-29T01:48:49.279Z,74283
2017-03-29T01:48:59.373Z,74284
2017-03-29T01:49:09.471Z,74281
2017-03-29T01:49:19.554Z,74280
2017-03-29T01:49:29.356Z,74281
2017-03-29T01:49:39.445Z,74282
2017-03-29T01:49:49.537Z,74285
2017-03-29T01:49:59.628Z,74287
2017-03-29T01:50:09.147Z,74286
2017-03-29T01:50:19.236Z,74283
2017-03-29T01:50:29.328Z,74282
2017-03-29T01:50:39.415Z,74284
2017-03-29T01:50:49.214Z,74284
2017-03-29T01:50:59.015Z,74285
2017-03-29T01:51:08.826Z,74284
2017-03-29T01:51:18.918Z,74288
2017-03-29T01:51:29.011Z,74285
2017-03-29T01:51:38.844Z,74283
2017-03-29T01:51:48.938Z,74287
2017-03-29T01:51:59.040Z,74288
2017-03-29T01:52:08.849Z,74285
2017-03-29T01:52:18.689Z,74284
2017-03-29T01:52:28.779Z,74289
2017-03-29T01:52:38.868Z,74286
2017-03-29T01:52:48.961Z,74287
2017-03-29T01:52:58.764Z,74288
2017-03-29T01:53:08.858Z,74288
2017-03-29T01:53:18.948Z,74285
2017-03-29T01:53:29.044Z,74286
2017-03-29T01:53:39.135Z,74291
2017-03-29T01:53:48.936Z,74289
2017-03-29T01:53:59.035Z,74288
2017-03-29T01:54:09.123Z,74284
2017-03-29T01:54:19.213Z,74289
2017-03-29T01:54:29.304Z,74287
2017-03-29T01:54:39.405Z,74285
2017-03-29T01:54:49.497Z,74290
2017-03-29T01:54:59.589Z,74290
2017-03-29T01:55:09.678Z,74286
2017-03-29T01:55:19.769Z,74289
2017-03-29T01:55:29.576Z,74287
2017-03-29T01:55:39.385Z,74288
2017-03-29T01:55:49.190Z,74288
2017-03-29T01:55:59.281Z,74287
2017-03-29T01:56:09.402Z,74285
2017-03-29T01:56:19.498Z,74284
2017-03-29T01:56:29.589Z,74286
2017-03-29T01:56:39.393Z,74286
2017-03-29T01:56:49.488Z,74284
2017-03-29T01:56:59.585Z,74287
2017-03-29T01:57:09.679Z,74286
2017-03-29T01:57:19.770Z,74284
2017-03-29T01:57:29.287Z,74288
2017-03-29T01:57:39.090Z,74285
2017-03-29T01:57:49.179Z,74286
2017-03-29T01:57:59.268Z,74284
2017-03-29T01:58:09.072Z,74287
2017-03-29T01:58:19.164Z,74282
2017-03-29T01:58:28.958Z,74285
2017-03-29T01:58:39.048Z,74284
2017-03-29T01:58:49.139Z,74288
2017-03-29T01:58:59.230Z,74289
2017-03-29T01:59:09.329Z,74287
2017-03-29T01:59:19.425Z,74284
2017-03-29T01:59:29.527Z,74281
2017-03-29T01:59:39.616Z,74286
2017-03-29T01:59:49.701Z,74289
2017-03-29T01:59:59.790Z,74284
2017-03-29T02:00:09.318Z,74286
2017-03-29T02:00:19.405Z,74285
2017-03-29T02:00:29.494Z,74282
2017-03-29T02:00:39.586Z,74286
2017-03-29T02:00:49.109Z,74291
2017-03-29T02:00:59.201Z,74286
2017-03-29T02:01:09.297Z,74289
2017-03-29T02:01:19.385Z,74289
2017-03-29T02:01:29.482Z,74290
2017-03-29T02:01:39.571Z,74291
2017-03-29T02:01:49.658Z,74288
2017-03-29T02:01:59.750Z,74290
2017-03-29T02:02:09.840Z,74290
2017-03-29T02:02:19.931Z,74290
2017-03-29T02:02:30.020Z,74291
2017-03-29T02:02:39.828Z,74289
2017-03-29T02:02:49.921Z,74289
2017-03-29T02:03:00.016Z,74289
2017-03-29T02:03:10.106Z,74291
2017-03-29T02:03:20.200Z,74286
2017-03-29T02:03:30.288Z,74284
2017-03-29T02:03:40.084Z,74284
2017-03-29T02:03:50.174Z,74283
2017-03-29T02:03:59.972Z,74285
2017-03-29T02:04:09.773Z,74282
2017-03-29T02:04:19.862Z,74283
2017-03-29T02:04:29.963Z,74282
2017-03-29T02:04:39.765Z,74289
2017-03-29T02:04:49.857Z,74280
2017-03-29T02:04:59.947Z,74280
2017-03-29T02:05:10.038Z,74278
2017-03-29T02:05:19.838Z,74277
2017-03-29T02:05:29.931Z,74276
2017-03-29T02:05:40.025Z,74278
2017-03-29T02:05:49.825Z,74280
2017-03-29T02:05:59.917Z,74280
2017-03-29T02:06:10.042Z,74282
2017-03-29T02:06:19.847Z,74282
2017-03-29T02:06:29.936Z,74279
2017-03-29T02:06:39.735Z,74280
2017-03-29T02:06:49.568Z,74276
2017-03-29T02:06:59.657Z,74279
2017-03-29T02:07:09.747Z,74276
2017-03-29T02:07:19.838Z,74281
2017-03-29T02:07:29.646Z,74280
2017-03-29T02:07:39.167Z,74281
2017-03-29T02:07:49.261Z,74284
2017-03-29T02:07:59.353Z,74279
2017-03-29T02:08:09.161Z,74277
2017-03-29T02:08:18.965Z,74281
2017-03-29T02:08:29.056Z,74275
2017-03-29T02:08:38.860Z,74280
2017-03-29T02:08:48.947Z,74280